Time;durP1;ratioP1;P1;durP2;ratioP2;P2;SDS_P1;SDS_P2;PMS_P1;PMS_P2;Temp;Humidity;BMP_temperature;BMP_pressure;BME280_temperature;BME280_humidity;BME280_pressure;Samples;Min_cycle;Max_cycle;Signal;HPM_P1;HPM_P2
2023/04/11 00:00:18;;;;;;;9.07;6.88;;;10.60;38.40;;;;;;5076381;28;20039;-54
2023/04/11 00:02:45;;;;;;;9.15;6.75;;;10.60;38.50;;;;;;5068090;28;20032;-57
2023/04/11 00:05:11;;;;;;;10.52;7.38;;;10.60;38.60;;;;;;5067524;28;20491;-56
2023/04/11 00:07:37;;;;;;;9.98;6.80;;;10.60;38.70;;;;;;5068844;28;20024;-48
2023/04/11 00:10:03;;;;;;;10.90;6.70;;;10.60;39.00;;;;;;5075843;28;20064;-52
2023/04/11 00:12:28;;;;;;;13.45;7.55;;;10.60;38.60;;;;;;5079246;28;20511;-46
2023/04/11 00:14:54;;;;;;;10.65;7.03;;;10.60;38.70;;;;;;5071676;28;20028;-50
2023/04/11 00:17:20;;;;;;;9.75;7.45;;;10.60;38.60;;;;;;5077123;28;20033;-53
2023/04/11 00:19:47;;;;;;;10.15;7.10;;;10.60;38.20;;;;;;5072032;28;20455;-49
2023/04/11 00:22:14;;;;;;;10.02;6.80;;;10.60;38.40;;;;;;5076644;28;20423;-50
2023/04/11 00:24:40;;;;;;;12.77;7.55;;;10.60;38.40;;;;;;5078993;28;20614;-52
2023/04/11 00:27:06;;;;;;;11.82;8.15;;;10.60;38.40;;;;;;5074216;28;20033;-49
2023/04/11 00:29:32;;;;;;;12.15;7.68;;;10.60;37.90;;;;;;5068533;28;20412;-50
2023/04/11 00:31:59;;;;;;;11.48;7.63;;;10.60;38.30;;;;;;5072722;28;20033;-49
2023/04/11 00:34:26;;;;;;;12.55;8.30;;;10.60;38.20;;;;;;5078764;28;20481;-50
2023/04/11 00:36:51;;;;;;;9.75;6.88;;;10.60;38.30;;;;;;5079266;28;20036;-51
2023/04/11 00:39:17;;;;;;;11.05;7.55;;;10.60;38.40;;;;;;5077614;28;20036;-51
2023/04/11 00:41:43;;;;;;;11.15;7.15;;;10.50;38.50;;;;;;5086191;28;20115;-51
2023/04/11 00:44:09;;;;;;;10.32;6.88;;;10.50;38.60;;;;;;5069210;28;20036;-51
2023/04/11 00:46:34;;;;;;;10.75;7.43;;;10.60;38.70;;;;;;5074711;28;20457;-51
2023/04/11 00:49:00;;;;;;;10.55;7.60;;;10.60;38.70;;;;;;5071282;28;20063;-51
2023/04/11 00:51:27;;;;;;;10.82;7.13;;;10.50;38.80;;;;;;5087848;28;20102;-51
2023/04/11 00:53:54;;;;;;;10.80;7.38;;;10.50;38.90;;;;;;5089613;28;20035;-52
2023/04/11 00:56:21;;;;;;;11.10;7.45;;;10.50;39.10;;;;;;5068601;28;20555;-50
2023/04/11 00:58:46;;;;;;;9.52;6.40;;;10.50;39.10;;;;;;5090026;28;20049;-49
2023/04/11 01:01:13;;;;;;;11.95;7.70;;;10.50;39.30;;;;;;5069035;28;20044;-52
2023/04/11 01:03:40;;;;;;;10.30;7.53;;;10.50;39.40;;;;;;5089737;28;20035;-49
2023/04/11 01:06:07;;;;;;;11.90;7.55;;;10.40;40.20;;;;;;5068533;28;20102;-47
2023/04/11 01:08:35;;;;;;;9.80;7.15;;;10.40;39.50;;;;;;5089773;28;20095;-53
2023/04/11 01:11:02;;;;;;;10.02;6.80;;;10.40;39.50;;;;;;5068524;28;20029;-52
2023/04/11 01:13:30;;;;;;;10.40;7.60;;;10.40;39.80;;;;;;5088250;28;20032;-49
2023/04/11 01:15:55;;;;;;;9.88;7.20;;;10.40;39.90;;;;;;5077919;28;20023;-53
2023/04/11 01:18:21;;;;;;;9.70;6.93;;;10.40;40.30;;;;;;5085020;28;20024;-51
2023/04/11 01:20:47;;;;;;;9.15;6.70;;;10.30;40.50;;;;;;5066085;28;20075;-50
2023/04/11 01:23:19;;;;;;;10.00;7.22;;;10.30;40.50;;;;;;5075427;28;20024;-52
2023/04/11 01:25:45;;;;;;;12.18;7.43;;;10.30;40.70;;;;;;5083011;28;20108;-52
2023/04/11 01:28:11;;;;;;;10.82;7.65;;;10.30;41.30;;;;;;5085472;28;20103;-50
2023/04/11 01:30:37;;;;;;;10.32;6.60;;;10.30;40.90;;;;;;5085327;28;20051;-51
2023/04/11 01:33:02;;;;;;;12.00;8.00;;;10.30;40.90;;;;;;5079277;28;20136;-51
2023/04/11 01:35:28;;;;;;;10.52;7.55;;;10.30;41.10;;;;;;5068092;28;20031;-52
2023/04/11 01:37:54;;;;;;;10.73;7.40;;;10.30;41.10;;;;;;5077746;28;20024;-48
2023/04/11 01:40:22;;;;;;;10.30;6.78;;;10.30;41.10;;;;;;5065942;28;20124;-49
2023/04/11 01:42:49;;;;;;;10.05;7.18;;;10.30;41.30;;;;;;5084465;28;20039;-53
2023/04/11 01:45:15;;;;;;;12.10;8.25;;;10.30;41.50;;;;;;5088249;28;20407;-52
2023/04/11 01:47:41;;;;;;;11.00;7.60;;;10.30;41.30;;;;;;5066496;28;20034;-51
2023/04/11 01:50:07;;;;;;;10.18;7.65;;;10.20;41.40;;;;;;5079515;28;20427;-51
2023/04/11 01:52:32;;;;;;;11.10;8.07;;;10.30;41.60;;;;;;5087240;28;20031;-53
2023/04/11 01:54:58;;;;;;;11.80;8.13;;;10.20;41.30;;;;;;5066062;28;20098;-51
2023/04/11 01:57:24;;;;;;;11.40;7.60;;;10.30;42.20;;;;;;5069928;28;20017;-47
2023/04/11 01:59:50;;;;;;;11.40;8.02;;;10.30;41.40;;;;;;5086450;28;20038;-52
2023/04/11 02:02:15;;;;;;;11.82;8.07;;;10.30;41.50;;;;;;5089851;28;20028;-50
2023/04/11 02:04:41;;;;;;;12.75;8.23;;;10.30;41.60;;;;;;5069940;28;20032;-47
2023/04/11 02:07:06;;;;;;;11.07;8.55;;;10.30;41.70;;;;;;5089863;28;20555;-51
2023/04/11 02:09:32;;;;;;;10.95;7.95;;;10.20;42.00;;;;;;5068327;28;20036;-49
2023/04/11 02:11:58;;;;;;;12.75;7.90;;;10.30;42.00;;;;;;5089185;28;20082;-49
2023/04/11 02:14:24;;;;;;;12.55;8.02;;;10.20;42.30;;;;;;5068277;28;20484;-47
2023/04/11 02:16:55;;;;;;;13.82;8.90;;;10.30;42.40;;;;;;5089052;28;20512;-50
2023/04/11 02:19:22;;;;;;;11.20;8.07;;;10.20;42.20;;;;;;5067915;28;20067;-50
2023/04/11 02:21:48;;;;;;;13.02;8.32;;;10.20;42.30;;;;;;5087911;28;20031;-53
2023/04/11 02:24:15;;;;;;;11.15;8.23;;;10.20;42.40;;;;;;5068187;28;20114;-50
2023/04/11 02:26:41;;;;;;;14.15;8.35;;;10.20;42.40;;;;;;5089157;28;20443;-52
2023/04/11 02:29:06;;;;;;;11.73;8.43;;;10.30;42.50;;;;;;5068083;28;20047;-51
2023/04/11 02:31:32;;;;;;;16.55;9.45;;;10.30;42.60;;;;;;5088806;28;20028;-47
2023/04/11 02:33:57;;;;;;;12.23;7.95;;;10.30;42.50;;;;;;5077669;28;20058;-50
2023/04/11 02:36:25;;;;;;;12.50;8.23;;;10.30;42.60;;;;;;5069823;28;20028;-50
2023/04/11 02:38:51;;;;;;;12.20;8.23;;;10.30;42.70;;;;;;5087106;28;20408;-47
2023/04/11 02:41:16;;;;;;;12.43;8.30;;;10.30;42.80;;;;;;5069745;28;20485;-49
2023/04/11 02:43:42;;;;;;;13.77;9.20;;;10.30;43.10;;;;;;5086740;28;20020;-49
2023/04/11 02:46:07;;;;;;;10.32;7.30;;;10.30;42.80;;;;;;5069970;28;20519;-53
2023/04/11 02:48:34;;;;;;;11.93;8.90;;;10.30;43.00;;;;;;5086725;28;20621;-47
2023/04/11 02:51:00;;;;;;;13.70;8.00;;;10.30;43.20;;;;;;5088081;28;20030;-49
2023/04/11 02:53:25;;;;;;;10.85;8.18;;;10.30;43.20;;;;;;5073867;28;20567;-49
2023/04/11 02:55:51;;;;;;;13.00;7.82;;;10.20;43.30;;;;;;5089251;28;20120;-52
2023/04/11 02:58:18;;;;;;;12.75;8.45;;;10.20;43.50;;;;;;5073259;28;20028;-47
2023/04/11 03:00:44;;;;;;;11.20;7.85;;;10.20;43.60;;;;;;5089243;28;20020;-51
2023/04/11 03:03:10;;;;;;;12.85;7.25;;;10.20;43.70;;;;;;5071683;28;20107;-53
2023/04/11 03:05:36;;;;;;;11.07;7.93;;;10.20;44.00;;;;;;5079471;28;20032;-49
2023/04/11 03:08:02;;;;;;;12.45;8.65;;;10.20;43.90;;;;;;5086478;28;20024;-53
2023/04/11 03:10:28;;;;;;;15.18;9.35;;;10.10;43.50;;;;;;5089047;28;20030;-51
2023/04/11 03:12:54;;;;;;;11.35;8.38;;;10.20;43.70;;;;;;5070339;28;20032;-51
2023/04/11 03:15:20;;;;;;;13.70;8.80;;;10.20;43.70;;;;;;5087760;28;20079;-55
2023/04/11 03:17:45;;;;;;;13.55;9.30;;;10.10;43.80;;;;;;5069568;28;20497;-50
2023/04/11 03:20:12;;;;;;;11.35;7.88;;;10.10;44.00;;;;;;5088858;28;20480;-53
2023/04/11 03:22:38;;;;;;;15.02;8.82;;;10.10;44.20;;;;;;5068165;28;20028;-53
2023/04/11 03:25:05;;;;;;;12.55;8.13;;;10.10;44.40;;;;;;5089078;28;20024;-55
2023/04/11 03:27:30;;;;;;;12.68;8.90;;;10.10;44.30;;;;;;5066955;28;20086;-55
2023/04/11 03:29:56;;;;;;;12.20;8.52;;;10.10;44.30;;;;;;5088893;28;20031;-48
2023/04/11 03:32:22;;;;;;;13.25;8.48;;;10.10;45.00;;;;;;5069166;28;20040;-52
2023/04/11 03:34:49;;;;;;;11.82;7.85;;;10.10;44.60;;;;;;5087247;28;20560;-50
2023/04/11 03:37:15;;;;;;;11.85;8.30;;;10.10;44.10;;;;;;5088629;28;20028;-53
2023/04/11 03:39:40;;;;;;;13.40;9.02;;;10.10;44.40;;;;;;5067129;28;20457;-52
2023/04/11 03:42:06;;;;;;;11.93;8.25;;;10.00;44.50;;;;;;5087980;28;20491;-48
2023/04/11 03:44:31;;;;;;;12.68;8.68;;;10.00;44.60;;;;;;5067370;28;20029;-48
2023/04/11 03:46:57;;;;;;;12.23;8.43;;;10.10;44.60;;;;;;5088071;28;20036;-51
2023/04/11 03:49:22;;;;;;;12.57;8.40;;;10.10;44.70;;;;;;5067320;28;20511;-50
2023/04/11 03:51:48;;;;;;;13.07;8.95;;;10.10;44.70;;;;;;5088418;28;20032;-49
2023/04/11 03:54:14;;;;;;;12.10;8.20;;;10.00;44.70;;;;;;5067578;28;20024;-50
2023/04/11 03:56:39;;;;;;;15.30;8.63;;;10.10;45.30;;;;;;5088448;28;20114;-48
2023/04/11 03:59:05;;;;;;;13.13;9.02;;;10.00;45.20;;;;;;5067337;28;20040;-49
2023/04/11 04:01:31;;;;;;;12.48;8.00;;;10.00;45.00;;;;;;5087995;28;20097;-51
2023/04/11 04:03:56;;;;;;;12.90;8.10;;;10.00;44.90;;;;;;5067180;28;20032;-50
2023/04/11 04:06:22;;;;;;;10.68;7.50;;;10.00;45.10;;;;;;5087350;28;20028;-48
2023/04/11 04:08:47;;;;;;;11.35;8.00;;;10.00;45.00;;;;;;5080629;28;20024;-48
2023/04/11 04:11:13;;;;;;;11.93;7.85;;;10.00;45.20;;;;;;5072216;28;20041;-49
2023/04/11 04:13:38;;;;;;;11.35;7.68;;;10.00;45.40;;;;;;5089349;28;20081;-51
2023/04/11 04:16:05;;;;;;;12.18;7.47;;;10.00;45.20;;;;;;5072031;28;20024;-49
2023/04/11 04:18:31;;;;;;;9.30;7.13;;;10.00;45.20;;;;;;5080894;28;20052;-50
2023/04/11 04:20:56;;;;;;;11.68;7.75;;;10.00;45.30;;;;;;5068633;28;20059;-52
2023/04/11 04:23:22;;;;;;;11.25;7.68;;;10.00;45.10;;;;;;5069358;28;20135;-54
2023/04/11 04:25:49;;;;;;;10.98;8.25;;;10.00;45.20;;;;;;5088135;28;20032;-48
2023/04/11 04:28:19;;;;;;;12.40;7.53;;;10.00;45.00;;;;;;5090445;28;20042;-48
2023/04/11 04:30:48;;;;;;;12.75;8.48;;;10.10;45.10;;;;;;5068537;28;20120;-51
2023/04/11 04:33:17;;;;;;;11.95;8.23;;;10.10;44.90;;;;;;5082765;28;20488;-49
2023/04/11 04:35:43;;;;;;;13.20;8.15;;;10.10;44.80;;;;;;5073173;28;20032;-48
2023/04/11 04:38:08;;;;;;;9.40;6.85;;;10.10;45.00;;;;;;5086531;28;20111;-52
2023/04/11 04:40:38;;;;;;;10.50;6.53;;;10.10;45.00;;;;;;5077126;28;20036;-48
2023/04/11 04:43:07;;;;;;;9.88;6.72;;;10.10;45.50;;;;;;5073880;28;20020;-48
2023/04/11 04:45:33;;;;;;;12.00;6.43;;;10.10;45.60;;;;;;5088433;28;20032;-49
2023/04/11 04:47:59;;;;;;;8.88;6.00;;;10.10;45.80;;;;;;5090351;28;20043;-50
2023/04/11 04:50:25;;;;;;;9.40;6.38;;;10.10;46.30;;;;;;5075518;28;20107;-53
2023/04/11 04:52:50;;;;;;;10.38;6.57;;;10.20;46.50;;;;;;5084340;28;20020;-52
2023/04/11 04:55:16;;;;;;;9.88;6.53;;;10.10;46.10;;;;;;5081946;28;20441;-50
2023/04/11 04:57:41;;;;;;;9.65;6.53;;;10.10;46.80;;;;;;5089185;28;20035;-52
2023/04/11 05:00:10;;;;;;;10.73;6.70;;;10.10;47.00;;;;;;5066798;28;20608;-51
2023/04/11 05:02:36;;;;;;;9.85;6.97;;;10.20;48.90;;;;;;5076639;28;20035;-51
2023/04/11 05:05:03;;;;;;;9.85;6.25;;;10.20;49.70;;;;;;5073707;28;20016;-51
2023/04/11 05:07:28;;;;;;;10.02;6.95;;;10.10;50.60;;;;;;5088623;28;20036;-53
2023/04/11 05:09:55;;;;;;;10.25;7.20;;;10.10;52.10;;;;;;5090502;28;20663;-50
2023/04/11 05:12:25;;;;;;;10.68;6.70;;;10.10;54.00;;;;;;5088798;28;20036;-50
2023/04/11 05:14:51;;;;;;;10.73;7.05;;;10.10;55.00;;;;;;5086103;28;20103;-52
2023/04/11 05:17:17;;;;;;;10.50;6.57;;;10.00;58.30;;;;;;5090376;28;20403;-50
2023/04/11 05:19:43;;;;;;;9.15;6.25;;;10.00;63.50;;;;;;5068903;28;20040;-52
2023/04/11 05:22:08;;;;;;;8.77;5.82;;;9.90;63.50;;;;;;5088952;28;20036;-50
2023/04/11 05:24:34;;;;;;;9.85;7.07;;;9.90;67.20;;;;;;5068643;28;20041;-48
2023/04/11 05:26:59;;;;;;;10.07;7.15;;;9.80;75.70;;;;;;5086988;28;20064;-52
2023/04/11 05:29:25;;;;;;;10.35;7.15;;;9.80;77.20;;;;;;5085311;28;20021;-50
2023/04/11 05:31:50;;;;;;;11.63;7.32;;;9.70;79.80;;;;;;5089079;28;20099;-47
2023/04/11 05:34:16;;;;;;;11.00;6.90;;;9.70;80.30;;;;;;5068733;28;20074;-52
2023/04/11 05:36:41;;;;;;;11.80;7.03;;;9.60;82.50;;;;;;5079760;28;20081;-52
2023/04/11 05:39:07;;;;;;;9.68;6.63;;;9.60;90.40;;;;;;5089652;28;20027;-50
2023/04/11 05:41:32;;;;;;;11.48;7.65;;;9.50;93.80;;;;;;5078307;28;20104;-49
2023/04/11 05:43:58;;;;;;;8.43;6.25;;;9.40;92.30;;;;;;5069945;28;20104;-47
2023/04/11 05:46:24;;;;;;;10.07;6.80;;;9.40;91.00;;;;;;5086846;28;20112;-53
2023/04/11 05:48:49;;;;;;;9.05;6.50;;;9.40;94.60;;;;;;5069811;28;20043;-49
2023/04/11 05:51:15;;;;;;;13.98;7.40;;;9.30;99.00;;;;;;5086632;28;20028;-52
2023/04/11 05:53:40;;;;;;;10.68;7.22;;;9.30;99.80;;;;;;5069612;28;20032;-50
2023/04/11 05:56:06;;;;;;;11.30;7.53;;;9.20;99.90;;;;;;5086392;28;20044;-49
2023/04/11 05:58:33;;;;;;;9.18;6.82;;;9.20;99.90;;;;;;5089249;28;20028;-51
2023/04/11 06:00:59;;;;;;;10.30;7.65;;;9.10;99.90;;;;;;5073439;28;20491;-50
2023/04/11 06:03:25;;;;;;;9.35;6.75;;;9.00;99.90;;;;;;5089262;28;20017;-53
2023/04/11 06:05:52;;;;;;;9.13;6.53;;;9.00;99.90;;;;;;5067757;28;20029;-52
2023/04/11 06:08:17;;;;;;;9.32;6.10;;;9.10;99.90;;;;;;5088922;28;20036;-53
2023/04/11 06:10:43;;;;;;;7.55;6.07;;;9.10;99.90;;;;;;5070039;28;20031;-49
2023/04/11 06:13:08;;;;;;;9.82;6.47;;;9.10;99.90;;;;;;5089150;28;20020;-54
2023/04/11 06:15:34;;;;;;;10.13;6.28;;;9.10;99.90;;;;;;5070127;28;20035;-56
2023/04/11 06:17:59;;;;;;;15.05;6.85;;;9.10;99.90;;;;;;5088961;28;20103;-50
2023/04/11 06:20:25;;;;;;;9.20;5.80;;;9.10;99.90;;;;;;5068898;28;20037;-50
2023/04/11 06:22:50;;;;;;;8.57;5.55;;;9.20;99.90;;;;;;5088882;28;20016;-53
2023/04/11 06:25:18;;;;;;;8.27;5.88;;;9.20;99.90;;;;;;5067518;28;20285;-54
2023/04/11 06:27:44;;;;;;;11.07;6.53;;;9.20;99.90;;;;;;5088516;28;20055;-51
2023/04/11 06:30:10;;;;;;;9.73;5.75;;;9.20;99.90;;;;;;5067604;28;20052;-55
2023/04/11 06:32:35;;;;;;;12.50;6.78;;;9.20;99.90;;;;;;5083981;28;20194;-50
2023/04/11 06:35:01;;;;;;;14.70;7.10;;;9.20;99.90;;;;;;5068509;28;20025;-50
2023/04/11 06:37:26;;;;;;;11.20;7.32;;;9.20;99.90;;;;;;5086080;28;20421;-53
2023/04/11 06:39:52;;;;;;;10.35;6.20;;;9.20;99.90;;;;;;5088597;28;20462;-47
2023/04/11 06:42:17;;;;;;;9.23;6.05;;;9.20;99.90;;;;;;5067270;28;20039;-49
2023/04/11 06:44:44;;;;;;;9.65;6.30;;;9.20;99.90;;;;;;5087974;28;20032;-52
2023/04/11 06:47:10;;;;;;;9.70;6.95;;;9.30;99.90;;;;;;5066716;28;20692;-50
2023/04/11 06:49:35;;;;;;;11.35;6.70;;;9.30;99.90;;;;;;5087635;28;20059;-50
2023/04/11 06:52:02;;;;;;;12.10;7.03;;;9.30;99.90;;;;;;5067183;28;20481;-52
2023/04/11 06:54:27;;;;;;;10.27;5.70;;;9.40;99.90;;;;;;5087791;28;20028;-51
2023/04/11 06:56:53;;;;;;;8.77;6.63;;;9.40;99.90;;;;;;5066867;28;20032;-53
2023/04/11 06:59:19;;;;;;;10.38;6.85;;;9.50;99.90;;;;;;5087739;28;20032;-50
2023/04/11 07:01:44;;;;;;;11.82;6.95;;;9.60;99.90;;;;;;5067041;28;20089;-48
2023/04/11 07:04:10;;;;;;;9.88;7.13;;;9.50;99.90;;;;;;5087667;28;20039;-53
2023/04/11 07:06:36;;;;;;;14.25;7.32;;;9.60;99.90;;;;;;5064249;28;20048;-52
2023/04/11 07:09:02;;;;;;;11.43;6.85;;;9.70;99.90;;;;;;5087597;28;20031;-54
2023/04/11 07:11:28;;;;;;;10.15;6.57;;;9.70;99.90;;;;;;5076936;28;20028;-54
2023/04/11 07:14:00;;;;;;;8.50;5.78;;;9.80;99.90;;;;;;5068609;28;20397;-53
2023/04/11 07:16:26;;;;;;;8.00;5.53;;;9.90;99.90;;;;;;5085999;28;20040;-51
2023/04/11 07:18:52;;;;;;;8.93;6.10;;;9.90;99.90;;;;;;5068500;28;20428;-52
2023/04/11 07:21:18;;;;;;;9.50;6.00;;;9.90;99.90;;;;;;5085695;28;20101;-54
2023/04/11 07:23:43;;;;;;;10.52;6.65;;;9.90;99.90;;;;;;5068489;28;20052;-51
2023/04/11 07:26:10;;;;;;;9.10;5.50;;;9.90;99.90;;;;;;5085388;28;20419;-53
2023/04/11 07:28:37;;;;;;;11.02;6.43;;;9.90;99.90;;;;;;5068479;28;20033;-49
2023/04/11 07:31:03;;;;;;;8.55;5.40;;;10.00;99.90;;;;;;5085628;28;20048;-52
2023/04/11 07:33:29;;;;;;;10.23;6.75;;;10.00;99.90;;;;;;5078230;28;20057;-53
2023/04/11 07:35:54;;;;;;;8.13;6.30;;;10.00;99.90;;;;;;5085406;28;20433;-52
2023/04/11 07:38:28;;;;;;;7.13;5.32;;;10.10;99.90;;;;;;5086607;28;20063;-49
2023/04/11 07:40:54;;;;;;;5.85;4.75;;;10.20;99.90;;;;;;5073200;28;20056;-54
2023/04/11 07:43:19;;;;;;;8.68;5.65;;;10.30;99.90;;;;;;5092089;28;20032;-54
2023/04/11 07:45:45;;;;;;;8.80;5.80;;;10.40;99.90;;;;;;5073124;28;20228;-53
2023/04/11 07:48:10;;;;;;;10.30;6.60;;;10.40;99.90;;;;;;5091641;28;20024;-50
2023/04/11 07:50:36;;;;;;;9.13;6.20;;;10.40;99.90;;;;;;5073290;28;20365;-52
2023/04/11 07:53:02;;;;;;;9.10;5.80;;;10.40;99.90;;;;;;5091741;28;20056;-55
2023/04/11 07:55:27;;;;;;;9.88;6.85;;;10.40;99.90;;;;;;5071798;28;20101;-50
2023/04/11 07:57:53;;;;;;;9.70;6.20;;;10.40;99.90;;;;;;5091653;28;20019;-50
2023/04/11 08:00:20;;;;;;;9.07;6.38;;;10.40;99.90;;;;;;5070559;28;20026;-54
2023/04/11 08:02:46;;;;;;;9.43;6.03;;;10.50;99.90;;;;;;5091512;28;20059;-55
2023/04/11 08:05:11;;;;;;;10.15;6.32;;;10.50;99.90;;;;;;5075207;28;20123;-54
2023/04/11 08:07:37;;;;;;;7.95;5.57;;;10.50;99.90;;;;;;5089641;28;20077;-50
2023/04/11 08:10:03;;;;;;;8.50;5.95;;;10.50;99.90;;;;;;5091251;28;20036;-55
2023/04/11 08:12:29;;;;;;;8.02;5.90;;;10.50;99.90;;;;;;5069662;28;20439;-51
2023/04/11 08:14:54;;;;;;;8.88;5.97;;;10.50;99.90;;;;;;5090734;28;20024;-52
2023/04/11 08:17:20;;;;;;;7.70;5.35;;;10.60;99.90;;;;;;5069741;28;20036;-49
2023/04/11 08:19:45;;;;;;;8.23;5.53;;;10.60;99.90;;;;;;5090429;28;20028;-53
2023/04/11 08:22:11;;;;;;;9.07;4.80;;;10.60;99.90;;;;;;5069897;28;20041;-49
2023/04/11 08:24:36;;;;;;;9.65;5.72;;;10.70;99.90;;;;;;5090454;28;20060;-54
2023/04/11 08:27:02;;;;;;;7.97;5.28;;;10.70;99.90;;;;;;5068225;28;20465;-52
2023/04/11 08:29:27;;;;;;;6.40;4.35;;;10.80;99.90;;;;;;5090206;28;20032;-52
2023/04/11 08:31:53;;;;;;;7.25;5.22;;;10.80;99.90;;;;;;5069462;28;20029;-50
2023/04/11 08:34:18;;;;;;;7.88;4.75;;;10.90;99.90;;;;;;5089901;28;20079;-54
2023/04/11 08:36:44;;;;;;;9.35;6.30;;;10.90;99.90;;;;;;5069325;28;20094;-53
2023/04/11 08:39:10;;;;;;;19.17;9.05;;;10.90;99.90;;;;;;5089928;28;20404;-53
2023/04/11 08:41:37;;;;;;;12.60;7.20;;;10.90;99.90;;;;;;5068973;28;20445;-52
2023/04/11 08:44:02;;;;;;;9.35;6.57;;;10.90;99.90;;;;;;5090113;28;20119;-52
2023/04/11 08:46:30;;;;;;;13.57;6.57;;;10.90;99.90;;;;;;5079271;28;20115;-52
2023/04/11 08:48:56;;;;;;;11.48;6.57;;;10.90;99.90;;;;;;5070439;28;20036;-55
2023/04/11 08:51:24;;;;;;;9.40;5.25;;;11.00;99.90;;;;;;5087418;28;20397;-55
2023/04/11 08:53:52;;;;;;;7.78;5.30;;;11.00;99.90;;;;;;5070418;28;20067;-52
2023/04/11 08:56:18;;;;;;;9.15;5.63;;;11.10;99.90;;;;;;5088165;28;20403;-50
2023/04/11 08:58:44;;;;;;;8.63;5.43;;;11.10;99.90;;;;;;5070550;28;20028;-54
2023/04/11 09:01:27;;;;;;;9.38;5.78;;;11.00;99.90;;;;;;5087485;28;20064;-52
2023/04/11 09:03:54;;;;;;;9.20;5.20;;;11.00;99.90;;;;;;5070483;28;20031;-53
2023/04/11 09:06:20;;;;;;;5.97;4.63;;;10.90;99.90;;;;;;5085243;28;20062;-50
2023/04/11 09:08:45;;;;;;;5.68;4.03;;;10.80;99.90;;;;;;5069184;28;20052;-49
2023/04/11 09:11:11;;;;;;;4.55;2.40;;;10.70;99.90;;;;;;5087450;28;20094;-54
2023/04/11 09:13:37;;;;;;;2.90;2.13;;;10.30;99.90;;;;;;5070692;28;20055;-53
2023/04/11 09:16:03;;;;;;;3.08;1.55;;;10.10;99.90;;;;;;5087418;28;20077;-51
2023/04/11 09:18:36;;;;;;;4.47;1.63;;;10.00;99.90;;;;;;5090216;28;20119;-50
2023/04/11 09:21:05;;;;;;;2.70;1.17;;;9.90;99.90;;;;;;5074551;28;20024;-52
2023/04/11 09:23:30;;;;;;;1.83;1.40;;;9.90;99.90;;;;;;5089929;28;20569;-53
2023/04/11 09:25:56;;;;;;;3.28;1.80;;;9.90;99.90;;;;;;5074090;28;20028;-52
2023/04/11 09:28:23;;;;;;;2.92;1.00;;;9.90;99.90;;;;;;5090036;28;20024;-53
2023/04/11 09:30:50;;;;;;;3.58;1.65;;;10.00;99.90;;;;;;5072937;28;20028;-50
2023/04/11 09:33:24;;;;;;;2.95;1.42;;;10.00;99.90;;;;;;5082082;28;20290;-52
2023/04/11 09:35:53;;;;;;;2.30;1.73;;;10.10;99.90;;;;;;5087349;28;20028;-53
2023/04/11 09:38:35;;;;;;;4.75;1.38;;;10.20;99.90;;;;;;5089803;28;20020;-54
2023/04/11 09:41:02;;;;;;;2.47;1.52;;;10.30;99.90;;;;;;5060321;28;20038;-51
2023/04/11 09:43:52;;;;;;;3.03;1.60;;;10.40;99.90;;;;;;5089506;28;20024;-54
2023/04/11 09:46:19;;;;;;;1.67;1.40;;;10.50;99.90;;;;;;5065204;28;20058;-54
2023/04/11 09:48:46;;;;;;;3.47;1.73;;;10.50;99.90;;;;;;5069477;28;20033;-52
2023/04/11 09:51:12;;;;;;;7.38;3.40;;;10.70;99.90;;;;;;5086862;28;20024;-53
2023/04/11 09:53:37;;;;;;;10.27;4.47;;;10.90;99.90;;;;;;5069670;28;20522;-50
2023/04/11 09:56:05;;;;;;;7.45;3.30;;;11.10;99.90;;;;;;5086568;28;20030;-54
2023/04/11 09:58:33;;;;;;;4.30;2.65;;;11.40;99.90;;;;;;5089582;28;20034;-52
2023/04/11 10:00:59;;;;;;;4.65;2.60;;;11.60;99.90;;;;;;5073399;28;20029;-53
2023/04/11 10:03:26;;;;;;;5.60;2.45;;;11.90;99.90;;;;;;5088280;28;20536;-52
2023/04/11 10:05:53;;;;;;;4.40;2.67;;;12.10;99.90;;;;;;5069804;28;20032;-54
2023/04/11 10:08:29;;;;;;;4.28;2.72;;;12.30;99.90;;;;;;5088963;28;20028;-52
2023/04/11 10:10:55;;;;;;;6.55;2.50;;;12.40;99.90;;;;;;5058201;28;20027;-54
2023/04/11 10:13:41;;;;;;;5.60;2.90;;;12.60;99.90;;;;;;5089068;28;20115;-55
2023/04/11 10:16:17;;;;;;;5.32;2.97;;;12.80;99.90;;;;;;5074897;28;20085;-50
2023/04/11 10:18:52;;;;;;;3.47;2.40;;;13.00;99.90;;;;;;5048969;28;20044;-52
2023/04/11 10:21:29;;;;;;;5.45;2.70;;;13.10;97.20;;;;;;5085455;28;20031;-55
2023/04/11 10:24:10;;;;;;;4.95;2.30;;;13.30;95.80;;;;;;5068713;28;20077;-54
2023/04/11 10:26:51;;;;;;;5.30;2.20;;;13.50;94.40;;;;;;5085087;28;20369;-52
2023/04/11 10:29:29;;;;;;;5.88;2.30;;;13.70;95.00;;;;;;5048623;28;20033;-52
2023/04/11 10:32:09;;;;;;;4.82;2.50;;;13.80;93.30;;;;;;5084201;28;20028;-53
2023/04/11 10:34:37;;;;;;;4.13;2.25;;;13.90;92.20;;;;;;5088502;28;20051;-53
2023/04/11 10:37:07;;;;;;;5.43;2.03;;;13.90;88.60;;;;;;5066867;28;20039;-53
2023/04/11 10:39:53;;;;;;;7.90;2.15;;;13.90;87.50;;;;;;5088288;28;20098;-51
2023/04/11 10:42:51;;;;;;;3.30;1.35;;;14.10;88.10;;;;;;5066776;28;20036;-51
2023/04/11 10:45:31;;;;;;;8.88;2.03;;;14.30;82.90;;;;;;5029463;28;20032;-54
2023/04/11 10:48:10;;;;;;;5.75;1.60;;;14.40;88.20;;;;;;5088568;28;20379;-53
2023/04/11 10:50:39;;;;;;;3.20;1.75;;;14.70;84.60;;;;;;5051648;28;20448;-53
2023/04/11 10:53:06;;;;;;;6.28;2.13;;;14.80;81.00;;;;;;5088495;28;20035;-49
2023/04/11 10:55:49;;;;;;;4.80;1.80;;;15.00;79.30;;;;;;5069313;28;20047;-51
2023/04/11 10:58:18;;;;;;;4.63;1.95;;;15.20;76.40;;;;;;5088558;28;20020;-51
2023/04/11 11:01:11;;;;;;;4.47;1.92;;;15.30;76.50;;;;;;5070790;28;20219;-54
2023/04/11 11:03:37;;;;;;;4.20;1.55;;;15.30;73.00;;;;;;5088469;28;20441;-50
2023/04/11 11:06:05;;;;;;;3.42;1.35;;;15.40;73.90;;;;;;5068145;28;20119;-48
2023/04/11 11:08:40;;;;;;;5.47;1.55;;;15.60;72.40;;;;;;5088236;28;20099;-52
2023/04/11 11:11:08;;;;;;;3.30;1.33;;;15.80;71.90;;;;;;5073486;28;20031;-52
2023/04/11 11:13:42;;;;;;;7.07;1.63;;;15.80;67.60;;;;;;5088334;28;20024;-49
2023/04/11 11:16:09;;;;;;;8.05;1.58;;;15.90;66.80;;;;;;5077764;28;20392;-49
2023/04/11 11:18:36;;;;;;;4.00;1.10;;;16.00;66.70;;;;;;5092493;28;20102;-50
2023/04/11 11:21:01;;;;;;;3.47;1.50;;;16.10;66.30;;;;;;5077242;28;20297;-51
2023/04/11 11:23:27;;;;;;;3.97;1.40;;;16.30;63.50;;;;;;5092392;28;20085;-51
2023/04/11 11:25:53;;;;;;;4.82;1.58;;;16.40;61.60;;;;;;5075875;28;20032;-51
2023/04/11 11:28:19;;;;;;;4.18;1.35;;;16.50;57.90;;;;;;5092319;28;20027;-52
2023/04/11 11:30:53;;;;;;;3.42;0.95;;;16.40;58.70;;;;;;5074869;28;20028;-50
2023/04/11 11:33:20;;;;;;;4.25;1.42;;;16.30;55.60;;;;;;5083701;28;20343;-51
2023/04/11 11:35:51;;;;;;;2.63;1.23;;;16.30;56.20;;;;;;5089657;28;20043;-52
2023/04/11 11:38:19;;;;;;;2.55;1.08;;;16.30;56.00;;;;;;5092131;28;20028;-53
2023/04/11 11:40:46;;;;;;;2.20;1.00;;;16.20;54.20;;;;;;5074261;28;20123;-51
2023/04/11 11:43:12;;;;;;;2.20;0.80;;;16.10;52.00;;;;;;5091820;28;20459;-53
2023/04/11 11:45:38;;;;;;;1.80;0.88;;;16.10;52.10;;;;;;5073642;28;20107;-52
2023/04/11 11:48:04;;;;;;;2.05;1.00;;;16.10;52.50;;;;;;5090497;28;20101;-53
2023/04/11 11:50:31;;;;;;;3.47;0.95;;;16.10;51.70;;;;;;5072282;28;20436;-51
2023/04/11 11:53:13;;;;;;;4.25;1.30;;;16.10;51.90;;;;;;5091822;28;20036;-48
2023/04/11 11:55:39;;;;;;;3.33;1.17;;;16.10;45.30;;;;;;5056839;28;20099;-53
2023/04/11 11:58:05;;;;;;;3.40;1.30;;;16.00;48.50;;;;;;5091694;28;20540;-53
2023/04/11 12:00:36;;;;;;;4.72;1.33;;;15.70;49.40;;;;;;5072060;28;20036;-53
2023/04/11 12:03:02;;;;;;;3.40;1.10;;;15.60;49.00;;;;;;5091601;28;20016;-48
2023/04/11 12:05:30;;;;;;;5.03;1.27;;;15.60;50.80;;;;;;5073537;28;20035;-50
2023/04/11 12:07:58;;;;;;;2.35;0.85;;;15.60;50.60;;;;;;5091498;28;20093;-54
2023/04/11 12:10:25;;;;;;;3.50;0.73;;;15.70;49.90;;;;;;5089457;28;20030;-52
2023/04/11 12:12:51;;;;;;;1.15;0.70;;;15.80;50.20;;;;;;5091343;28;20056;-48
2023/04/11 12:15:18;;;;;;;2.42;0.85;;;15.90;49.20;;;;;;5070147;28;20652;-50
2023/04/11 12:17:48;;;;;;;1.50;0.82;;;16.00;48.10;;;;;;5091520;28;20038;-45
2023/04/11 12:20:14;;;;;;;2.00;0.70;;;16.20;48.70;;;;;;5069460;28;20048;-47
2023/04/11 12:22:40;;;;;;;3.15;1.05;;;16.30;48.60;;;;;;5089952;28;20020;-44
2023/04/11 12:25:10;;;;;;;1.83;0.70;;;16.40;47.20;;;;;;5071202;28;20228;-43
2023/04/11 12:27:37;;;;;;;1.70;0.60;;;16.20;45.40;;;;;;5087983;28;20031;-45
2023/04/11 12:30:03;;;;;;;0.85;0.52;;;15.90;44.50;;;;;;5089551;28;20028;-46
2023/04/11 12:32:31;;;;;;;1.48;0.65;;;15.60;43.90;;;;;;5070248;28;20031;-44
2023/04/11 12:34:57;;;;;;;2.30;0.68;;;15.40;46.10;;;;;;5090859;28;20016;-45
2023/04/11 12:37:22;;;;;;;1.35;0.80;;;15.30;45.90;;;;;;5069683;28;20043;-48
2023/04/11 12:39:48;;;;;;;2.15;0.50;;;15.30;46.00;;;;;;5089962;28;20077;-44
2023/04/11 12:42:13;;;;;;;2.10;0.80;;;15.00;41.60;;;;;;5069245;28;20077;-44